Hlavní strana
METAR-TAF:

METAR-TAF

Letiště :

Almería, Španělsko

zeměpisná šířka: 36-51N, zeměpisná délka: 002-23W, výška: 15 m

Aktuální stav počasí

Zpráva byla vytvořena před 29 minutami, v 22:00 UTC
Východoseverovýchodní vítr 23 kt
Teplota 14°C
Vlhkost vzduchu 72%
Tlak 1019 hPa
Viditelnost 10 km a více
Oblačno až skoro zataženo ve výšce 7000 ft
Zataženo ve výšce 8000 ft
slabý déšť

METAR: LEAM 282200Z AUTO 06023KT 9999 -RA BKN070 OVC080 14/09 Q1019

Čas: 23:29 (22:29 UTC)

Předpověď počasí

Zpráva byla vytvořena před 2 hodinami a 29 minutami, v 20:00 UTC
Předpověď platná od 28 v 21 UTC do 01 v 21 UTC
Východoseverovýchodní vítr 20 kt
Viditelnost 10 km a více
Skoro jasno ve výšce 4000 ft
Dočasný
od 28 v 21 UTC do 01 v 17 UTC
Severovýchodní vítr 20 kt s nárazy do 30 kt
Pravděpodobnost 30% :
Dočasný
od 28 v 21 UTC do 28 v 24 UTC
Severovýchodní vítr 28 kt s nárazy do 43 kt

TAF: LEAM 282000Z 2821/0121 07020KT 9999 FEW040 TX21/0115Z TN11/0106Z TEMPO 2821/0117 04020G30KT PROB30 TEMPO 2821/2824 05028G43KT

Stav a předpovědi počasí z více než 4 000 letišť (zprávy METAR a TAF).

Červené a žluté tečky na mapě představují dostupné meteorologické stanice.

Když kurzor umístíte na tečku, zobrazí se název stanice.

Pak kliknutím zobrazíte stav a předpověď počasí.

Chcete-li změnit mapu, kliknutím na zelené tlačítko se znaménkem +mapu přiblížíte, kliknutím na zelené tlačítko se znaménkem – mapu oddálíte a kliknutím na zelené šipky přejdete na sousední mapy.


METAR-TAF: